Time;durP1;ratioP1;P1;durP2;ratioP2;P2;SDS_P1;SDS_P2;PMS_P1;PMS_P2;Temp;Humidity;BMP_temperature;BMP_pressure;BME280_temperature;BME280_humidity;BME280_pressure;Samples;Min_cycle;Max_cycle;Signal;HPM_P1;HPM_P2
2023/07/09 00:01:38;;;;;;;36.38;31.42;;;23.10;71.30;;;;;;5108942;27;20088;-75
2023/07/09 00:04:04;;;;;;;33.67;30.17;;;23.00;71.60;;;;;;5124787;27;20024;-74
2023/07/09 00:06:30;;;;;;;31.35;28.05;;;23.00;71.50;;;;;;5107659;27;20534;-75
2023/07/09 00:08:55;;;;;;;34.08;30.63;;;23.00;71.40;;;;;;5123122;27;20056;-75
2023/07/09 00:11:21;;;;;;;33.70;30.15;;;23.00;71.60;;;;;;5114048;27;20043;-76
2023/07/09 00:13:47;;;;;;;33.75;30.15;;;23.00;71.70;;;;;;5110103;27;20031;-76
2023/07/09 00:16:20;;;;;;;33.67;30.05;;;23.00;71.60;;;;;;5109857;27;20059;-75
2023/07/09 00:18:48;;;;;;;35.08;31.17;;;23.00;71.60;;;;;;5108519;27;20019;-74
2023/07/09 00:21:14;;;;;;;32.97;29.52;;;23.00;71.70;;;;;;5107854;27;20503;-77
2023/07/09 00:23:41;;;;;;;34.33;30.83;;;22.90;71.80;;;;;;5109633;27;20062;-74
2023/07/09 00:26:13;;;;;;;37.97;33.50;;;22.90;71.90;;;;;;5115395;27;20035;-75
2023/07/09 00:28:39;;;;;;;40.45;36.20;;;22.90;71.90;;;;;;5104880;28;20023;-75
2023/07/09 00:31:07;;;;;;;41.33;37.10;;;22.80;72.00;;;;;;5112548;27;20181;-75
2023/07/09 00:33:33;;;;;;;42.42;38.17;;;22.70;72.20;;;;;;5107798;27;20042;-75
2023/07/09 00:35:59;;;;;;;44.15;39.65;;;22.70;72.40;;;;;;5088974;28;20511;-75
2023/07/09 00:38:26;;;;;;;46.92;42.05;;;22.60;72.40;;;;;;5108449;27;20424;-75
2023/07/09 00:41:06;;;;;;;49.33;44.33;;;22.60;72.40;;;;;;5109496;27;20057;-76
2023/07/09 00:43:36;;;;;;;53.22;47.67;;;22.60;72.40;;;;;;5107415;28;20077;-75
2023/07/09 00:46:20;;;;;;;57.40;51.78;;;22.60;72.30;;;;;;5107003;28;20031;-74
2023/07/09 00:49:04;;;;;;;63.63;57.35;;;22.40;72.20;;;;;;5108543;28;20048;-75
2023/07/09 00:51:32;;;;;;;66.00;59.40;;;22.30;72.00;;;;;;5099448;28;20040;-75
2023/07/09 00:54:00;;;;;;;67.95;61.00;;;22.20;71.80;;;;;;5107917;27;20014;-75
2023/07/09 00:56:33;;;;;;;72.90;65.55;;;22.20;71.70;;;;;;5088008;28;20085;-74
2023/07/09 00:59:04;;;;;;;74.68;67.28;;;22.10;71.20;;;;;;5105330;28;20027;-75
2023/07/09 01:01:32;;;;;;;79.57;71.78;;;22.10;71.00;;;;;;5089311;27;20067;-75
2023/07/09 01:04:00;;;;;;;76.95;69.07;;;22.10;70.80;;;;;;5108209;28;20024;-75
2023/07/09 01:06:35;;;;;;;78.97;71.15;;;22.00;70.90;;;;;;5091889;27;20028;-76
2023/07/09 01:09:03;;;;;;;77.88;70.38;;;22.00;70.80;;;;;;5107510;28;20019;-74
2023/07/09 01:11:30;;;;;;;80.90;73.00;;;22.00;70.80;;;;;;5106395;28;20062;-75
2023/07/09 01:13:59;;;;;;;77.70;69.97;;;21.90;70.80;;;;;;5108061;28;20023;-74
2023/07/09 01:16:28;;;;;;;82.15;74.20;;;21.90;70.80;;;;;;5106663;27;20118;-74
2023/07/09 01:18:54;;;;;;;78.00;70.47;;;21.90;70.70;;;;;;5089137;28;20403;-75
2023/07/09 01:21:20;;;;;;;76.22;68.65;;;21.80;70.90;;;;;;5107273;27;20531;-73
2023/07/09 01:23:48;;;;;;;82.22;74.35;;;21.80;70.90;;;;;;5107342;28;20027;-75
2023/07/09 01:26:17;;;;;;;81.35;72.93;;;21.80;70.60;;;;;;5085109;28;20396;-74
2023/07/09 01:28:44;;;;;;;85.90;77.18;;;21.80;70.80;;;;;;5088162;28;20008;-74
2023/07/09 01:31:11;;;;;;;81.47;73.25;;;21.70;70.60;;;;;;5113777;27;20047;-74
2023/07/09 01:33:39;;;;;;;86.35;77.47;;;21.60;71.10;;;;;;5107739;28;20031;-73
2023/07/09 01:36:06;;;;;;;84.30;75.72;;;21.60;71.30;;;;;;5106248;27;20027;-74
2023/07/09 01:38:33;;;;;;;79.32;71.47;;;21.60;71.20;;;;;;5088289;28;20479;-74
2023/07/09 01:40:59;;;;;;;83.68;75.45;;;21.50;71.30;;;;;;5106112;27;20020;-74
2023/07/09 01:43:26;;;;;;;83.68;75.18;;;21.60;71.20;;;;;;5104651;28;20026;-75
2023/07/09 01:45:52;;;;;;;88.10;79.32;;;21.50;71.30;;;;;;5106494;27;20464;-74
2023/07/09 01:48:20;;;;;;;79.90;71.70;;;21.60;71.40;;;;;;5107146;27;20068;-75
2023/07/09 01:50:49;;;;;;;82.85;74.45;;;21.50;71.60;;;;;;5109779;27;20050;-74
2023/07/09 01:53:16;;;;;;;82.20;73.97;;;21.60;71.50;;;;;;5106991;28;20020;-74
2023/07/09 01:55:43;;;;;;;85.68;77.15;;;21.60;71.40;;;;;;5105926;28;20096;-76
2023/07/09 01:58:10;;;;;;;87.43;78.55;;;21.60;71.10;;;;;;5107183;28;20043;-74
2023/07/09 02:00:37;;;;;;;89.95;80.68;;;21.60;71.30;;;;;;5104949;27;20521;-74
2023/07/09 02:03:04;;;;;;;89.25;80.25;;;21.60;71.30;;;;;;5106998;28;20127;-75
2023/07/09 02:05:33;;;;;;;91.68;82.50;;;21.60;71.60;;;;;;5105742;28;20034;-74
2023/07/09 02:07:59;;;;;;;88.13;78.95;;;21.50;71.80;;;;;;5106587;28;20463;-74
2023/07/09 02:10:25;;;;;;;93.50;83.68;;;21.50;72.00;;;;;;5106059;27;20472;-75
2023/07/09 02:12:51;;;;;;;89.20;79.90;;;21.50;72.10;;;;;;5106685;28;20016;-77
2023/07/09 02:15:17;;;;;;;87.35;78.43;;;21.40;72.00;;;;;;5105920;28;20031;-74
2023/07/09 02:17:43;;;;;;;89.47;80.40;;;21.40;72.10;;;;;;5106998;28;20108;-74
2023/07/09 02:20:10;;;;;;;90.55;81.60;;;21.50;72.30;;;;;;5105777;28;20102;-74
2023/07/09 02:22:37;;;;;;;86.63;77.78;;;21.50;72.10;;;;;;5105479;28;20019;-75
2023/07/09 02:25:05;;;;;;;94.65;84.40;;;21.40;72.20;;;;;;5104249;28;20077;-74
2023/07/09 02:27:31;;;;;;;94.95;84.93;;;21.50;72.00;;;;;;5106505;28;20433;-74
2023/07/09 02:29:58;;;;;;;85.50;76.60;;;21.40;72.30;;;;;;5110495;27;20043;-76
2023/07/09 02:32:26;;;;;;;85.60;76.90;;;21.40;72.50;;;;;;5106939;28;20020;-74
2023/07/09 02:34:52;;;;;;;86.38;77.07;;;21.40;72.30;;;;;;5096978;28;20016;-76
2023/07/09 02:37:20;;;;;;;84.20;75.45;;;21.40;72.30;;;;;;5106021;28;20040;-75
2023/07/09 02:39:46;;;;;;;77.85;69.85;;;21.40;72.30;;;;;;5105769;28;20038;-75
2023/07/09 02:42:14;;;;;;;80.53;72.40;;;21.50;72.30;;;;;;5105794;27;20027;-74
2023/07/09 02:44:41;;;;;;;80.03;71.43;;;21.50;72.40;;;;;;5105178;28;20409;-76
2023/07/09 02:47:07;;;;;;;80.57;72.13;;;21.50;72.30;;;;;;5105399;27;20127;-75
2023/07/09 02:49:33;;;;;;;77.20;69.07;;;21.50;72.30;;;;;;5116417;28;20130;-75
2023/07/09 02:51:59;;;;;;;76.80;68.75;;;21.50;72.30;;;;;;5098810;27;20550;-75
2023/07/09 02:54:25;;;;;;;83.95;75.43;;;21.50;72.20;;;;;;5106846;28;20475;-75
2023/07/09 02:56:51;;;;;;;82.30;73.75;;;21.50;72.20;;;;;;5108919;28;20038;-76
2023/07/09 02:59:17;;;;;;;86.22;77.38;;;21.50;72.10;;;;;;5109982;28;20061;-75
2023/07/09 03:01:43;;;;;;;81.90;73.40;;;21.50;72.10;;;;;;5091819;28;20043;-75
2023/07/09 03:04:09;;;;;;;80.28;72.05;;;21.50;72.40;;;;;;5114428;27;20476;-75
2023/07/09 03:06:35;;;;;;;83.20;74.38;;;21.40;72.50;;;;;;5124788;27;20042;-76
2023/07/09 03:09:02;;;;;;;89.28;79.80;;;21.40;72.70;;;;;;5109561;28;20047;-75
2023/07/09 03:11:30;;;;;;;80.00;71.57;;;21.30;72.90;;;;;;5091022;28;20036;-75
2023/07/09 03:13:57;;;;;;;83.32;74.60;;;21.30;73.00;;;;;;5109778;28;20015;-75
2023/07/09 03:16:22;;;;;;;82.07;73.88;;;21.30;73.30;;;;;;5110789;27;20044;-76
2023/07/09 03:18:48;;;;;;;76.03;67.93;;;21.20;73.30;;;;;;5114447;27;20020;-75
2023/07/09 03:21:14;;;;;;;84.82;76.35;;;21.20;73.50;;;;;;5113963;27;20024;-75
2023/07/09 03:23:39;;;;;;;81.78;72.82;;;21.20;73.60;;;;;;5110311;27;20388;-75
2023/07/09 03:26:05;;;;;;;80.82;72.30;;;21.10;73.90;;;;;;5108885;28;20024;-76
2023/07/09 03:28:32;;;;;;;80.95;72.35;;;21.10;74.10;;;;;;5108849;28;20020;-75
2023/07/09 03:30:58;;;;;;;84.55;75.57;;;21.10;74.10;;;;;;5108364;28;20062;-74
2023/07/09 03:33:24;;;;;;;82.95;74.40;;;21.10;74.20;;;;;;5109402;28;20063;-74
2023/07/09 03:35:51;;;;;;;81.65;73.25;;;21.20;74.30;;;;;;5108740;28;20531;-75
2023/07/09 03:38:17;;;;;;;81.40;72.72;;;21.10;74.30;;;;;;5117011;27;20020;-75
2023/07/09 03:40:43;;;;;;;81.32;72.82;;;21.10;74.40;;;;;;5108318;27;20464;-75
2023/07/09 03:43:10;;;;;;;80.05;71.53;;;21.10;74.50;;;;;;5109365;28;20035;-74
2023/07/09 03:45:36;;;;;;;82.78;74.13;;;21.10;74.70;;;;;;5108699;28;20032;-75
2023/07/09 03:48:03;;;;;;;84.07;75.03;;;21.10;74.60;;;;;;5108975;28;20531;-73
2023/07/09 03:50:28;;;;;;;81.15;72.65;;;21.10;74.60;;;;;;5107915;27;20043;-73
2023/07/09 03:52:54;;;;;;;76.50;68.30;;;21.00;74.80;;;;;;5108756;27;20080;-76
2023/07/09 03:55:20;;;;;;;82.35;73.60;;;21.10;74.80;;;;;;5111975;27;20039;-74
2023/07/09 03:57:46;;;;;;;82.88;74.40;;;21.10;74.80;;;;;;5090905;28;20110;-74
2023/07/09 04:00:12;;;;;;;86.10;77.25;;;21.10;74.90;;;;;;5108899;27;20110;-73
2023/07/09 04:02:39;;;;;;;83.03;74.43;;;21.10;75.00;;;;;;5112793;27;20027;-74
2023/07/09 04:05:06;;;;;;;82.43;74.03;;;21.10;75.00;;;;;;5108156;27;20034;-74
2023/07/09 04:07:32;;;;;;;83.45;75.32;;;21.10;75.00;;;;;;5108551;28;20024;-75
2023/07/09 04:09:57;;;;;;;85.07;76.35;;;21.10;75.20;;;;;;5097096;28;20031;-76
2023/07/09 04:12:23;;;;;;;79.43;71.40;;;21.10;75.50;;;;;;5107761;28;20525;-76
2023/07/09 04:14:49;;;;;;;81.18;71.90;;;21.10;75.60;;;;;;5108980;28;20124;-76
2023/07/09 04:17:14;;;;;;;79.15;70.65;;;21.10;75.60;;;;;;5108142;28;20031;-74
2023/07/09 04:19:40;;;;;;;71.05;63.60;;;21.20;75.40;;;;;;5108106;28;20027;-76
2023/07/09 04:22:05;;;;;;;67.13;60.08;;;21.20;75.40;;;;;;5108521;28;20119;-75
2023/07/09 04:24:33;;;;;;;71.25;63.63;;;21.30;75.40;;;;;;5107967;28;20401;-75
2023/07/09 04:27:02;;;;;;;67.65;60.45;;;21.40;75.20;;;;;;5108049;27;20561;-75
2023/07/09 04:29:29;;;;;;;64.13;57.20;;;21.40;75.20;;;;;;5108112;28;20507;-75
2023/07/09 04:31:55;;;;;;;67.38;60.17;;;21.50;75.20;;;;;;5089409;28;20124;-76
2023/07/09 04:34:21;;;;;;;61.97;55.42;;;21.50;75.10;;;;;;5107174;27;20555;-76
2023/07/09 04:36:47;;;;;;;66.72;59.65;;;21.60;74.80;;;;;;5107959;28;20039;-74
2023/07/09 04:39:12;;;;;;;61.60;55.17;;;21.60;74.70;;;;;;5116710;27;20024;-74
2023/07/09 04:41:38;;;;;;;67.38;60.08;;;21.70;74.40;;;;;;5107634;27;20066;-74
2023/07/09 04:44:03;;;;;;;63.85;57.30;;;21.80;74.40;;;;;;5108143;28;20077;-74
2023/07/09 04:46:29;;;;;;;54.03;48.28;;;21.80;74.40;;;;;;5106244;28;20112;-74
2023/07/09 04:48:55;;;;;;;57.13;49.33;;;22.00;74.20;;;;;;5108358;27;20028;-74
2023/07/09 04:51:21;;;;;;;59.50;53.17;;;22.00;73.80;;;;;;5106959;27;20055;-74
2023/07/09 04:53:47;;;;;;;52.75;47.03;;;22.10;73.60;;;;;;5107940;28;20032;-74
2023/07/09 04:56:12;;;;;;;52.75;47.22;;;22.20;73.40;;;;;;5119175;27;20046;-74
2023/07/09 04:58:38;;;;;;;51.03;45.53;;;22.20;73.10;;;;;;5112279;28;20024;-75
2023/07/09 05:01:04;;;;;;;53.65;48.10;;;22.30;73.10;;;;;;5116776;27;20112;-74
2023/07/09 05:03:29;;;;;;;48.42;43.30;;;22.40;72.70;;;;;;5124596;27;20532;-75
2023/07/09 05:05:56;;;;;;;49.20;43.53;;;22.40;72.60;;;;;;5105512;27;20566;-74
2023/07/09 05:08:22;;;;;;;49.70;44.45;;;22.40;72.80;;;;;;5116211;27;20024;-75
2023/07/09 05:10:51;;;;;;;50.17;44.65;;;22.30;72.90;;;;;;5117068;27;20032;-75
2023/07/09 05:13:17;;;;;;;49.67;44.47;;;22.30;73.10;;;;;;5107537;28;20012;-74
2023/07/09 05:15:45;;;;;;;50.72;45.38;;;22.40;73.10;;;;;;5107312;27;20472;-74
2023/07/09 05:18:15;;;;;;;52.85;47.08;;;22.40;73.10;;;;;;5108811;27;20227;-74
2023/07/09 05:20:41;;;;;;;50.47;45.15;;;22.60;72.90;;;;;;5097762;27;20028;-74
2023/07/09 05:23:11;;;;;;;48.45;43.40;;;23.10;71.40;;;;;;5108002;28;20015;-74
2023/07/09 05:25:37;;;;;;;50.05;42.95;;;23.60;70.20;;;;;;5106413;28;20031;-75
2023/07/09 05:28:03;;;;;;;43.15;38.50;;;24.30;67.70;;;;;;5107160;28;20028;-75
2023/07/09 05:30:29;;;;;;;39.38;35.13;;;24.80;66.00;;;;;;5107386;27;20043;-74
2023/07/09 05:32:57;;;;;;;36.28;32.33;;;25.10;64.90;;;;;;5105800;28;20161;-74
2023/07/09 05:35:23;;;;;;;33.65;30.05;;;25.20;64.20;;;;;;5090920;28;20068;-74
2023/07/09 05:37:49;;;;;;;33.25;28.45;;;25.20;64.50;;;;;;5109591;27;20012;-74
2023/07/09 05:40:15;;;;;;;32.03;28.48;;;25.30;64.00;;;;;;5113628;27;20524;-74
2023/07/09 05:42:40;;;;;;;35.80;31.92;;;25.30;63.90;;;;;;5106570;28;20024;-75
2023/07/09 05:45:06;;;;;;;34.80;30.20;;;25.40;63.20;;;;;;5106294;28;20388;-75
2023/07/09 05:47:32;;;;;;;34.45;29.75;;;25.40;63.40;;;;;;5106814;28;20470;-74
2023/07/09 05:49:58;;;;;;;33.50;29.90;;;25.30;63.60;;;;;;5106623;27;20035;-74
2023/07/09 05:52:24;;;;;;;35.42;29.40;;;25.50;63.40;;;;;;5105640;27;20032;-73
2023/07/09 05:54:51;;;;;;;34.88;29.67;;;25.80;62.70;;;;;;5100650;28;20066;-74
2023/07/09 05:57:17;;;;;;;32.20;27.65;;;26.00;61.60;;;;;;5106548;27;20376;-75
2023/07/09 05:59:43;;;;;;;32.55;28.13;;;25.90;62.10;;;;;;5106148;28;20027;-74
2023/07/09 06:02:13;;;;;;;32.60;27.17;;;25.80;61.80;;;;;;5087400;28;20118;-74
2023/07/09 06:04:39;;;;;;;30.70;26.40;;;25.40;63.40;;;;;;5101925;28;20023;-74
2023/07/09 06:07:05;;;;;;;31.10;25.67;;;25.10;64.70;;;;;;5106235;28;20034;-75
2023/07/09 06:09:31;;;;;;;27.95;24.80;;;24.90;65.10;;;;;;5105880;28;20023;-74
2023/07/09 06:11:57;;;;;;;28.98;25.38;;;24.80;65.80;;;;;;5105840;27;20433;-74
2023/07/09 06:14:24;;;;;;;26.23;22.52;;;24.70;66.30;;;;;;5107534;27;20024;-75
2023/07/09 06:16:50;;;;;;;26.10;22.42;;;24.70;66.40;;;;;;5107778;27;20504;-74
2023/07/09 06:19:15;;;;;;;26.02;23.20;;;24.60;66.50;;;;;;5106880;28;20043;-74
2023/07/09 06:21:41;;;;;;;26.33;22.10;;;24.60;66.70;;;;;;5087206;28;20163;-74
2023/07/09 06:24:09;;;;;;;27.55;22.30;;;24.50;66.00;;;;;;5106533;28;20031;-74
2023/07/09 06:26:35;;;;;;;26.35;22.25;;;24.40;66.90;;;;;;5113801;27;20097;-74
2023/07/09 06:29:02;;;;;;;27.25;22.23;;;24.30;67.70;;;;;;5089772;28;20036;-74
2023/07/09 06:31:27;;;;;;;25.80;21.77;;;24.30;67.60;;;;;;5106793;28;20767;-75
2023/07/09 06:33:53;;;;;;;26.88;22.10;;;24.30;67.80;;;;;;5088200;28;20015;-75
2023/07/09 06:36:19;;;;;;;26.20;21.88;;;24.30;68.20;;;;;;5105467;28;20035;-75
2023/07/09 06:38:45;;;;;;;24.83;18.40;;;24.30;68.50;;;;;;5112359;28;20023;-75
2023/07/09 06:41:12;;;;;;;22.98;18.45;;;24.50;68.10;;;;;;5105161;27;20415;-75
2023/07/09 06:43:38;;;;;;;22.83;18.30;;;24.50;67.30;;;;;;5106032;28;20034;-74
2023/07/09 06:46:05;;;;;;;22.95;19.95;;;24.50;66.80;;;;;;5105103;28;20082;-74
2023/07/09 06:48:31;;;;;;;21.48;16.90;;;24.40;67.40;;;;;;5104939;28;20475;-75
2023/07/09 06:50:59;;;;;;;20.52;16.45;;;24.40;67.50;;;;;;5105654;27;20043;-75
2023/07/09 06:53:26;;;;;;;20.38;16.65;;;24.50;67.40;;;;;;5105633;28;20420;-75
2023/07/09 06:55:55;;;;;;;21.77;16.30;;;24.50;67.70;;;;;;5109867;27;20487;-74
2023/07/09 06:58:23;;;;;;;18.58;14.93;;;24.70;67.60;;;;;;5126366;27;20027;-74
2023/07/09 07:00:49;;;;;;;20.20;11.55;;;24.70;66.60;;;;;;5105624;27;20035;-74
2023/07/09 07:03:15;;;;;;;15.82;10.68;;;24.60;66.50;;;;;;5105772;28;20016;-74
2023/07/09 07:05:49;;;;;;;17.80;10.98;;;24.60;66.70;;;;;;5105201;27;20055;-74
2023/07/09 07:08:18;;;;;;;17.75;10.18;;;24.90;65.70;;;;;;5112178;28;20016;-74
2023/07/09 07:10:45;;;;;;;15.10;9.48;;;24.90;65.80;;;;;;5104414;27;20063;-75
2023/07/09 07:13:11;;;;;;;14.05;9.63;;;25.10;65.30;;;;;;5089195;28;20415;-74
2023/07/09 07:15:39;;;;;;;12.75;8.57;;;25.30;64.90;;;;;;5107027;28;20039;-75
2023/07/09 07:18:06;;;;;;;12.02;8.40;;;25.30;64.50;;;;;;5105333;28;20032;-75
2023/07/09 07:20:32;;;;;;;16.88;8.50;;;25.50;63.70;;;;;;5104728;28;20034;-74
2023/07/09 07:22:58;;;;;;;15.27;8.65;;;25.40;63.50;;;;;;5087315;28;20012;-74
2023/07/09 07:25:25;;;;;;;18.08;9.30;;;25.30;63.70;;;;;;5099832;27;20039;-74
2023/07/09 07:27:50;;;;;;;12.00;7.80;;;25.40;63.90;;;;;;5109262;28;20016;-75
2023/07/09 07:30:16;;;;;;;12.38;8.35;;;25.50;64.20;;;;;;5103950;28;20093;-74
2023/07/09 07:32:47;;;;;;;12.07;8.32;;;25.70;63.00;;;;;;5105541;28;20073;-74
2023/07/09 07:35:13;;;;;;;13.15;7.60;;;25.60;63.20;;;;;;5096770;27;20565;-75
2023/07/09 07:37:40;;;;;;;11.07;7.57;;;25.70;62.70;;;;;;5106237;28;20038;-75
2023/07/09 07:40:07;;;;;;;11.98;6.90;;;25.90;63.50;;;;;;5108753;28;20286;-75
2023/07/09 07:42:32;;;;;;;11.55;6.65;;;25.90;63.00;;;;;;5089874;28;20546;-75
2023/07/09 07:44:58;;;;;;;11.82;6.70;;;26.10;62.00;;;;;;5109247;28;20318;-74
2023/07/09 07:47:25;;;;;;;14.77;7.40;;;26.40;61.60;;;;;;5109409;27;20031;-74
2023/07/09 07:49:51;;;;;;;10.95;6.38;;;26.40;60.40;;;;;;5109061;28;20024;-74
2023/07/09 07:52:16;;;;;;;15.55;6.90;;;26.60;61.10;;;;;;5104010;27;20032;-75
2023/07/09 07:54:42;;;;;;;11.15;6.65;;;26.60;60.00;;;;;;5109090;28;20463;-75
2023/07/09 07:57:09;;;;;;;12.02;6.88;;;26.50;62.10;;;;;;5093877;28;20110;-75
2023/07/09 07:59:35;;;;;;;14.82;7.28;;;26.50;61.10;;;;;;5108032;28;20068;-75
2023/07/09 08:02:02;;;;;;;12.70;7.13;;;26.70;60.80;;;;;;5081678;28;20077;-74
2023/07/09 08:04:28;;;;;;;13.32;7.95;;;26.70;60.60;;;;;;5106204;27;20084;-75
2023/07/09 08:06:54;;;;;;;13.60;6.70;;;26.40;60.60;;;;;;5108507;27;20059;-75
2023/07/09 08:09:19;;;;;;;13.38;7.35;;;26.60;60.50;;;;;;5108666;28;20098;-76
2023/07/09 08:11:45;;;;;;;13.45;6.75;;;26.70;60.70;;;;;;5108250;27;20480;-74
2023/07/09 08:14:11;;;;;;;13.07;6.55;;;27.00;60.80;;;;;;5107861;27;20519;-75
2023/07/09 08:16:38;;;;;;;11.90;6.13;;;27.10;60.00;;;;;;5109131;27;20329;-75
2023/07/09 08:19:04;;;;;;;10.10;5.55;;;27.20;58.90;;;;;;5108536;28;20130;-75
2023/07/09 08:21:29;;;;;;;11.05;6.03;;;27.30;60.00;;;;;;5107324;28;20150;-75
2023/07/09 08:23:55;;;;;;;10.48;5.95;;;27.30;58.40;;;;;;5108671;28;20023;-74
2023/07/09 08:26:21;;;;;;;10.45;5.95;;;27.10;59.70;;;;;;5107086;27;20040;-74
2023/07/09 08:28:46;;;;;;;12.43;6.75;;;27.40;59.30;;;;;;5108679;28;20036;-74
2023/07/09 08:31:12;;;;;;;10.20;5.97;;;27.50;58.90;;;;;;5107090;28;20078;-74
2023/07/09 08:33:37;;;;;;;12.70;6.25;;;27.70;58.90;;;;;;5090168;28;20051;-74
2023/07/09 08:36:03;;;;;;;13.15;6.47;;;27.60;59.20;;;;;;5093810;28;20031;-74
2023/07/09 08:38:29;;;;;;;11.35;5.75;;;27.50;58.90;;;;;;5107099;28;20089;-74
2023/07/09 08:41:02;;;;;;;11.68;5.68;;;27.40;59.50;;;;;;5112431;27;20036;-74
2023/07/09 08:43:45;;;;;;;12.13;6.10;;;27.60;58.80;;;;;;5105732;28;20046;-75
2023/07/09 08:46:24;;;;;;;11.20;6.40;;;28.10;57.20;;;;;;5104030;28;20392;-74
2023/07/09 08:48:52;;;;;;;10.88;6.40;;;28.30;57.30;;;;;;5106935;28;20027;-74
2023/07/09 08:51:39;;;;;;;11.77;6.03;;;28.50;57.30;;;;;;5107273;28;20041;-74
2023/07/09 08:54:15;;;;;;;10.02;5.28;;;28.60;55.80;;;;;;5104423;28;20026;-75
2023/07/09 08:56:41;;;;;;;10.52;5.15;;;28.70;56.40;;;;;;5109974;27;20535;-74
2023/07/09 08:59:11;;;;;;;8.55;5.45;;;29.00;55.40;;;;;;5089748;28;20137;-75
2023/07/09 09:01:46;;;;;;;13.48;6.95;;;28.80;55.80;;;;;;5107039;27;20084;-74
2023/07/09 09:04:20;;;;;;;10.07;5.50;;;28.40;56.90;;;;;;5108427;28;20114;-75
2023/07/09 09:06:51;;;;;;;9.70;5.95;;;28.30;57.70;;;;;;5083791;28;20494;-75
2023/07/09 09:09:38;;;;;;;12.15;5.53;;;28.10;57.60;;;;;;5106785;28;20588;-75
2023/07/09 09:12:03;;;;;;;10.80;5.53;;;28.00;58.00;;;;;;5107054;27;20483;-75
2023/07/09 09:14:42;;;;;;;11.65;5.65;;;27.80;59.50;;;;;;5106880;28;20104;-74
2023/07/09 09:17:19;;;;;;;11.60;5.53;;;28.10;59.30;;;;;;5106967;27;20168;-74
2023/07/09 09:19:54;;;;;;;10.75;5.88;;;28.00;59.10;;;;;;5101794;28;20031;-74
2023/07/09 09:22:25;;;;;;;10.63;5.90;;;28.30;57.80;;;;;;5108021;27;20085;-74
2023/07/09 09:25:07;;;;;;;8.50;4.55;;;28.20;58.60;;;;;;5107265;28;20373;-74
2023/07/09 09:27:33;;;;;;;10.07;5.15;;;28.00;58.30;;;;;;5088820;28;20392;-74
2023/07/09 09:29:58;;;;;;;9.93;5.22;;;27.60;58.80;;;;;;5113319;27;20480;-74
2023/07/09 09:32:28;;;;;;;9.75;5.20;;;27.50;59.60;;;;;;5109562;27;20039;-74
2023/07/09 09:34:55;;;;;;;9.57;4.82;;;27.40;59.10;;;;;;5106819;28;20046;-74
2023/07/09 09:37:32;;;;;;;9.48;5.18;;;27.10;60.10;;;;;;5099216;28;20039;-75
2023/07/09 09:39:59;;;;;;;11.65;5.30;;;27.00;59.90;;;;;;5101581;27;20058;-75
2023/07/09 09:42:25;;;;;;;11.93;5.05;;;27.00;60.70;;;;;;5106374;27;20016;-74
2023/07/09 09:44:54;;;;;;;9.23;5.20;;;26.90;61.00;;;;;;5085902;28;20478;-74
2023/07/09 09:47:20;;;;;;;10.18;4.85;;;26.70;61.30;;;;;;5106492;28;20506;-75
2023/07/09 09:49:46;;;;;;;11.10;5.80;;;26.70;61.90;;;;;;5106830;28;20035;-75
2023/07/09 09:52:17;;;;;;;8.95;4.72;;;26.60;61.90;;;;;;5106779;27;20027;-75
2023/07/09 09:55:01;;;;;;;9.77;5.18;;;26.60;62.30;;;;;;5106131;28;20019;-75
2023/07/09 09:57:27;;;;;;;11.88;5.38;;;26.50;62.60;;;;;;5104685;28;20080;-74
2023/07/09 09:59:55;;;;;;;10.05;5.10;;;26.40;62.80;;;;;;5106340;28;20039;-76
2023/07/09 10:02:24;;;;;;;11.40;5.82;;;26.40;62.80;;;;;;5106373;28;20403;-75
2023/07/09 10:04:50;;;;;;;8.60;4.90;;;26.30;63.10;;;;;;5105945;28;20026;-75
2023/07/09 10:07:39;;;;;;;10.45;5.50;;;26.40;63.40;;;;;;5106055;27;20030;-75
2023/07/09 10:10:14;;;;;;;11.52;5.47;;;26.30;63.20;;;;;;5100976;27;20089;-75
2023/07/09 10:12:59;;;;;;;9.85;4.95;;;26.10;63.90;;;;;;5112565;27;20035;-75
2023/07/09 10:15:31;;;;;;;11.23;5.68;;;26.10;64.10;;;;;;5106378;27;20027;-75
2023/07/09 10:18:26;;;;;;;12.82;6.38;;;26.00;64.00;;;;;;5094697;28;20372;-75
2023/07/09 10:21:31;;;;;;;10.80;5.40;;;25.80;64.80;;;;;;5109525;27;20042;-75
2023/07/09 10:24:12;;;;;;;11.40;5.90;;;25.80;65.00;;;;;;5102288;28;20034;-75
2023/07/09 10:26:53;;;;;;;12.25;6.20;;;25.70;65.40;;;;;;5104892;28;20335;-75
2023/07/09 10:29:51;;;;;;;14.77;8.00;;;25.60;65.60;;;;;;5106721;28;20008;-75
2023/07/09 10:32:33;;;;;;;12.55;6.88;;;25.40;65.60;;;;;;5063254;28;20298;-75
2023/07/09 10:35:10;;;;;;;13.98;8.55;;;25.40;66.20;;;;;;5105264;27;20102;-75
2023/07/09 10:37:52;;;;;;;12.23;7.50;;;25.30;66.70;;;;;;5105367;28;20023;-75
2023/07/09 10:40:38;;;;;;;14.07;8.98;;;25.30;67.20;;;;;;5104096;27;20051;-75
2023/07/09 10:43:07;;;;;;;15.00;10.32;;;25.50;67.10;;;;;;5105931;28;20031;-75
2023/07/09 10:45:46;;;;;;;18.05;11.82;;;25.70;67.10;;;;;;5105094;28;20032;-75
2023/07/09 10:48:37;;;;;;;15.52;11.82;;;25.90;67.00;;;;;;5105312;28;20015;-74
2023/07/09 10:51:10;;;;;;;18.95;14.18;;;26.10;66.90;;;;;;5102471;27;20464;-75
2023/07/09 10:53:38;;;;;;;20.93;13.93;;;26.20;66.90;;;;;;5106181;28;20020;-75
2023/07/09 10:56:19;;;;;;;19.52;14.80;;;26.20;67.60;;;;;;5090442;28;20392;-75
2023/07/09 10:59:22;;;;;;;22.20;15.32;;;26.40;67.00;;;;;;5082580;28;20043;-75
2023/07/09 11:01:51;;;;;;;22.17;15.65;;;26.30;66.70;;;;;;5110339;27;20539;-75
2023/07/09 11:04:42;;;;;;;20.20;15.40;;;26.10;67.60;;;;;;5106239;28;20608;-76
2023/07/09 11:07:14;;;;;;;23.13;16.48;;;26.30;67.20;;;;;;5103222;28;20034;-75
2023/07/09 11:09:46;;;;;;;19.83;14.98;;;26.50;66.60;;;;;;5105435;28;20042;-75
2023/07/09 11:12:34;;;;;;;21.38;16.13;;;26.80;66.50;;;;;;5109978;27;20474;-75
2023/07/09 11:15:18;;;;;;;23.30;17.17;;;27.10;65.10;;;;;;5105556;27;20459;-75
2023/07/09 11:17:46;;;;;;;23.52;17.23;;;27.10;64.40;;;;;;5102461;28;20026;-75
2023/07/09 11:20:28;;;;;;;22.95;17.27;;;26.80;63.00;;;;;;5107297;28;20024;-76
2023/07/09 11:23:00;;;;;;;23.75;18.38;;;26.40;64.80;;;;;;5108590;27;20020;-75
2023/07/09 11:25:29;;;;;;;24.92;18.60;;;26.30;65.20;;;;;;5099768;28;20032;-76
2023/07/09 11:28:05;;;;;;;22.30;16.80;;;26.30;65.50;;;;;;5112555;27;20023;-75
2023/07/09 11:30:32;;;;;;;23.98;17.88;;;26.10;64.90;;;;;;5108290;27;20047;-76
2023/07/09 11:33:25;;;;;;;27.08;19.30;;;26.10;64.80;;;;;;5090119;28;20019;-74
2023/07/09 11:36:05;;;;;;;22.30;17.33;;;26.00;65.30;;;;;;5108484;27;20034;-75
2023/07/09 11:38:43;;;;;;;24.10;18.00;;;26.00;66.30;;;;;;5107317;27;20529;-74
2023/07/09 11:41:54;;;;;;;21.88;17.42;;;25.80;66.50;;;;;;5104086;27;20040;-75
2023/07/09 11:44:28;;;;;;;20.95;16.90;;;25.60;66.60;;;;;;5083089;27;20046;-75
2023/07/09 11:47:01;;;;;;;26.25;19.05;;;25.60;66.70;;;;;;5108425;28;20031;-75
2023/07/09 11:49:46;;;;;;;20.52;16.60;;;25.50;67.10;;;;;;5108932;28;20024;-75
2023/07/09 11:52:13;;;;;;;24.67;19.00;;;25.60;67.50;;;;;;5108663;27;20092;-76
2023/07/09 11:54:38;;;;;;;23.10;18.20;;;25.60;67.40;;;;;;5107704;28;20164;-76
2023/07/09 11:57:11;;;;;;;20.98;16.05;;;25.60;67.80;;;;;;5111731;27;20584;-73
2023/07/09 11:59:42;;;;;;;20.70;16.45;;;25.50;67.40;;;;;;5109038;28;20019;-77
2023/07/09 12:02:19;;;;;;;20.83;15.80;;;25.20;67.30;;;;;;5104934;27;20032;-76
2023/07/09 12:04:49;;;;;;;21.95;15.70;;;25.00;68.20;;;;;;5090199;28;20521;-76
2023/07/09 12:07:16;;;;;;;21.05;14.52;;;24.80;69.20;;;;;;5107247;27;20041;-76
2023/07/09 12:09:50;;;;;;;20.02;15.05;;;24.80;69.10;;;;;;5113266;27;20043;-76
2023/07/09 12:12:34;;;;;;;25.50;16.02;;;24.80;69.40;;;;;;5096136;27;20122;-76
2023/07/09 12:15:06;;;;;;;17.77;14.57;;;24.50;70.20;;;;;;5104231;27;20030;-76
2023/07/09 12:17:33;;;;;;;19.17;14.88;;;24.50;70.30;;;;;;5089644;28;20368;-76
2023/07/09 12:19:59;;;;;;;20.45;13.75;;;24.30;70.60;;;;;;5107702;27;20413;-76
2023/07/09 12:22:25;;;;;;;19.70;13.52;;;24.20;70.90;;;;;;5108730;28;20476;-76
2023/07/09 12:24:51;;;;;;;18.15;14.02;;;24.30;70.50;;;;;;5107700;28;20027;-76
2023/07/09 12:27:23;;;;;;;20.13;14.38;;;24.30;70.50;;;;;;5107545;27;20040;-76
2023/07/09 12:29:54;;;;;;;17.17;13.93;;;24.10;72.20;;;;;;5108652;28;20128;-76
2023/07/09 12:32:23;;;;;;;20.98;15.05;;;24.10;72.70;;;;;;5089232;28;20566;-76
2023/07/09 12:34:54;;;;;;;20.50;14.25;;;24.30;73.80;;;;;;5108324;28;20020;-76
2023/07/09 12:37:22;;;;;;;19.83;15.20;;;24.50;73.90;;;;;;5094942;27;20416;-76
2023/07/09 12:39:51;;;;;;;22.33;15.75;;;24.60;73.40;;;;;;5110018;27;20428;-76
2023/07/09 12:42:31;;;;;;;22.98;16.88;;;24.70;72.90;;;;;;5107779;27;20069;-76